createdAt,value
2018-04-13T00:00:07.487Z,17.5
2018-04-13T00:05:10.346Z,17.5
2018-04-13T00:10:23.341Z,17.5
2018-04-13T00:15:05.033Z,17.5
2018-04-13T00:20:02.386Z,17.5
2018-04-13T00:25:07.770Z,17.5
2018-04-13T00:30:05.608Z,17.5
2018-04-13T00:35:04.941Z,17.5
2018-04-13T00:40:07.767Z,17.4
2018-04-13T00:45:08.099Z,17.4
2018-04-13T00:50:15.061Z,17.4
2018-04-13T00:55:12.859Z,17.4
2018-04-13T01:00:18.334Z,17.3
2018-04-13T01:05:05.055Z,17.3
2018-04-13T01:10:07.898Z,17.2
2018-04-13T01:15:05.689Z,17.2
2018-04-13T01:20:05.699Z,17.2
2018-04-13T01:25:09.995Z,17.2
2018-04-13T01:30:03.281Z,17.2
2018-04-13T01:35:10.221Z,17.2
2018-04-13T01:40:05.510Z,17.2
2018-04-13T01:45:03.255Z,17.2
2018-04-13T01:50:02.575Z,17.2
2018-04-13T01:55:02.901Z,17.2
2018-04-13T02:00:08.422Z,17.1
2018-04-13T02:05:05.164Z,17
2018-04-13T02:10:02.927Z,17
2018-04-13T02:15:08.293Z,16.9
2018-04-13T02:20:02.720Z,16.9
2018-04-13T02:25:03.035Z,16.9
2018-04-13T02:30:03.364Z,16.9
2018-04-13T02:35:07.959Z,16.8
2018-04-13T02:40:10.305Z,16.8
2018-04-13T02:45:18.252Z,16.8
2018-04-13T02:50:05.076Z,16.8
2018-04-13T02:55:15.548Z,16.8
2018-04-13T03:00:02.880Z,16.8
2018-04-13T03:05:08.236Z,16.8
2018-04-13T03:10:05.495Z,16.8
2018-04-13T03:15:05.788Z,16.8
2018-04-13T03:20:03.123Z,16.8
2018-04-13T03:25:02.453Z,16.9
2018-04-13T03:30:02.810Z,16.8
2018-04-13T03:35:18.285Z,16.7
2018-04-13T03:40:03.056Z,16.7
2018-04-13T03:45:05.875Z,16.6
2018-04-13T03:50:05.709Z,16.5
2018-04-13T03:55:04.987Z,16.5
2018-04-13T04:00:03.334Z,16.5
2018-04-13T04:05:07.661Z,16.5
2018-04-13T04:10:04.932Z,16.4
2018-04-13T04:15:05.250Z,16.4
2018-04-13T04:20:02.686Z,16.4
2018-04-13T04:25:02.941Z,16.4
2018-04-13T04:30:13.369Z,16.4
2018-04-13T04:35:10.163Z,16.3
2018-04-13T04:40:02.899Z,16.3
2018-04-13T04:45:08.303Z,16.4
2018-04-13T04:50:15.315Z,16.4
2018-04-13T04:55:05.496Z,16.4
2018-04-13T05:00:05.466Z,16.5
2018-04-13T05:05:08.344Z,16.6
2018-04-13T05:10:15.788Z,16.6
2018-04-13T05:15:10.049Z,16.7
2018-04-13T05:20:15.095Z,16.7
2018-04-13T05:25:15.407Z,16.8
2018-04-13T05:30:02.729Z,16.8
2018-04-13T05:35:03.029Z,16.9
2018-04-13T05:40:02.815Z,16.9
2018-04-13T05:45:13.221Z,17
2018-04-13T05:50:07.621Z,17
2018-04-13T05:55:05.415Z,17.1
2018-04-13T06:00:02.806Z,17.1
2018-04-13T06:05:08.098Z,17.1
2018-04-13T06:10:05.444Z,17.3
2018-04-13T06:15:03.221Z,17.2
2018-04-13T06:20:15.268Z,17.3
2018-04-13T06:25:23.406Z,17.4
2018-04-13T06:30:07.802Z,17.4
2018-04-13T06:35:03.137Z,17.4
2018-04-13T06:40:05.400Z,17.5
2018-04-13T06:45:05.739Z,17.6
2018-04-13T06:50:15.772Z,17.6
2018-04-13T06:55:02.404Z,17.6
2018-04-13T07:00:02.724Z,17.6
2018-04-13T07:05:20.739Z,17.5
2018-04-13T07:10:02.525Z,17.5
2018-04-13T07:15:10.445Z,17.1
2018-04-13T07:20:10.432Z,16.6
2018-04-13T07:25:03.148Z,16.5
2018-04-13T07:30:20.152Z,15.7
2018-04-13T07:35:17.902Z,15.5
2018-04-13T07:40:05.581Z,15.5
2018-04-13T07:45:02.544Z,15.5
2018-04-13T07:50:08.433Z,15.3
2018-04-13T07:55:08.279Z,15.4
2018-04-13T08:00:05.175Z,15.4
2018-04-13T08:05:15.882Z,15.4
2018-04-13T08:10:05.150Z,15.5
2018-04-13T08:15:13.156Z,15.5
2018-04-13T08:20:05.070Z,15.6
2018-04-13T08:25:02.841Z,15.6
2018-04-13T08:30:03.150Z,15.6
2018-04-13T08:35:07.552Z,15.9
2018-04-13T08:40:05.789Z,16.1
2018-04-13T08:45:10.316Z,16.3
2018-04-13T08:50:05.217Z,16.6
2018-04-13T08:55:13.131Z,16.6
2018-04-13T09:00:02.439Z,16.6
2018-04-13T09:05:05.269Z,16.8
2018-04-13T09:10:03.029Z,16.8
2018-04-13T09:15:08.412Z,17.2
2018-04-13T09:20:02.808Z,17.2
2018-04-13T09:25:05.678Z,17.8
2018-04-13T09:30:03.005Z,17.8
2018-04-13T09:35:13.504Z,17.7
2018-04-13T09:40:03.280Z,17.7
2018-04-13T09:45:17.843Z,17.6
2018-04-13T09:50:03.145Z,17.6
2018-04-13T09:55:22.714Z,17.8
2018-04-13T10:00:03.092Z,17.7
2018-04-13T10:05:07.426Z,18.1
2018-04-13T10:10:03.194Z,18.1
2018-04-13T10:15:02.564Z,18
2018-04-13T10:20:02.958Z,17.7
2018-04-13T10:25:03.243Z,17.7
2018-04-13T10:30:07.613Z,18
2018-04-13T10:35:02.824Z,18
2018-04-13T10:40:07.685Z,18.4
2018-04-13T10:45:07.997Z,18.5
2018-04-13T10:50:05.801Z,18.5
2018-04-13T10:55:07.671Z,18.4
2018-04-13T11:00:05.545Z,18.4
2018-04-13T11:05:38.714Z,18.3
2018-04-13T11:10:05.049Z,18.2
2018-04-13T11:15:05.686Z,18.2
2018-04-13T11:20:18.483Z,18.3
2018-04-13T11:25:07.759Z,18.1
2018-04-13T11:30:23.294Z,18.2
2018-04-13T11:35:02.474Z,18.2
2018-04-13T11:40:08.338Z,18.6
2018-04-13T11:45:02.568Z,18.6
2018-04-13T11:50:05.457Z,18.8
2018-04-13T11:55:08.285Z,19
2018-04-13T12:00:07.672Z,18.9
2018-04-13T12:05:07.973Z,18.9
2018-04-13T12:10:02.699Z,19
2018-04-13T12:15:05.610Z,19.4
2018-04-13T12:20:18.185Z,19.6
2018-04-13T12:25:08.377Z,19.9
2018-04-13T12:30:05.287Z,20.4
2018-04-13T12:35:13.122Z,20.5
2018-04-13T12:40:05.521Z,20.7
2018-04-13T12:45:03.334Z,20.6
2018-04-13T12:50:02.648Z,21.3
2018-04-13T12:55:11.070Z,21.7
2018-04-13T13:00:05.575Z,21.7
2018-04-13T13:05:27.712Z,22.1
2018-04-13T13:10:10.044Z,22.5
2018-04-13T13:15:05.369Z,23.1
2018-04-13T13:20:02.766Z,23.1
2018-04-13T13:25:05.687Z,23.7
2018-04-13T13:30:10.710Z,23.1
2018-04-13T13:35:07.500Z,23.5
2018-04-13T13:40:08.354Z,23.9
2018-04-13T13:45:15.385Z,24.1
2018-04-13T13:50:05.298Z,24.2
2018-04-13T13:55:13.294Z,24.6
2018-04-13T14:00:02.646Z,24.6
2018-04-13T14:05:05.691Z,24.4
2018-04-13T14:10:02.538Z,24.4
2018-04-13T14:15:02.935Z,24.2
2018-04-13T14:20:03.398Z,25.8
2018-04-13T14:25:12.897Z,27.1
2018-04-13T14:30:08.332Z,26.3
2018-04-13T14:35:20.602Z,26.8
2018-04-13T14:40:05.416Z,27
2018-04-13T14:45:03.247Z,26.9
2018-04-13T14:50:10.307Z,25.6
2018-04-13T14:55:05.649Z,25.4
2018-04-13T15:00:03.034Z,25.4
2018-04-13T15:05:04.979Z,22.9
2018-04-13T15:10:05.307Z,21.7
2018-04-13T15:15:03.105Z,21.7
2018-04-13T15:20:05.039Z,20.2
2018-04-13T15:25:02.870Z,20.2
2018-04-13T15:30:03.294Z,19.3
2018-04-13T15:35:02.665Z,18.8
2018-04-13T15:40:02.464Z,18.4
2018-04-13T15:45:02.998Z,18.1
2018-04-13T15:50:21.120Z,17.7
2018-04-13T15:55:17.882Z,17.5
2018-04-13T16:00:10.828Z,17.4
2018-04-13T16:05:07.601Z,17.2
2018-04-13T16:10:03.384Z,17.2
2018-04-13T16:15:05.203Z,17
2018-04-13T16:20:15.312Z,16.8
2018-04-13T16:25:05.448Z,16.7
2018-04-13T16:30:05.343Z,16.6
2018-04-13T16:35:13.270Z,16.6
2018-04-13T16:40:10.606Z,16.6
2018-04-13T16:45:04.906Z,16.7
2018-04-13T16:50:10.787Z,16.6
2018-04-13T16:55:07.574Z,16.5
2018-04-13T17:00:02.898Z,16.5
2018-04-13T17:05:05.794Z,16.3
2018-04-13T17:10:05.135Z,16.4
2018-04-13T17:15:18.039Z,16.3
2018-04-13T17:20:07.427Z,16.3
2018-04-13T17:25:05.252Z,16.3
2018-04-13T17:30:02.530Z,16.2
2018-04-13T17:35:15.580Z,16.2
2018-04-13T17:40:02.585Z,16.2
2018-04-13T17:45:02.958Z,16.2
2018-04-13T17:50:15.972Z,16.1
2018-04-13T17:55:02.628Z,16.1
2018-04-13T18:00:03.247Z,16.1
2018-04-13T18:05:07.468Z,16
2018-04-13T18:10:13.348Z,16
2018-04-13T18:15:12.766Z,15.8
2018-04-13T18:20:05.684Z,15.8
2018-04-13T18:25:32.850Z,15.8
2018-04-13T18:30:08.194Z,15.7
2018-04-13T18:35:05.034Z,15.8
2018-04-13T18:40:05.308Z,15.7
2018-04-13T18:45:08.151Z,15.7
2018-04-13T18:50:02.443Z,15.7
2018-04-13T18:55:12.924Z,15.6
2018-04-13T19:00:03.409Z,15.6
2018-04-13T19:05:10.283Z,15.5
2018-04-13T19:10:05.614Z,15.5
2018-04-13T19:15:10.011Z,15.4
2018-04-13T19:20:07.448Z,15.4
2018-04-13T19:25:02.721Z,15.4
2018-04-13T19:30:13.226Z,15.2
2018-04-13T19:35:02.467Z,15.2
2018-04-13T19:40:23.468Z,15.1
2018-04-13T19:45:15.253Z,14.8
2018-04-13T19:50:10.319Z,14.7
2018-04-13T19:55:05.535Z,14.7
2018-04-13T20:00:02.856Z,14.7
2018-04-13T20:05:10.743Z,14.7
2018-04-13T20:10:10.054Z,14.7
2018-04-13T20:15:07.881Z,14.6
2018-04-13T20:20:05.819Z,14.5
2018-04-13T20:25:02.607Z,14.5
2018-04-13T20:30:02.909Z,14.5
2018-04-13T20:35:25.976Z,14.3
2018-04-13T20:40:05.216Z,14.3
2018-04-13T20:45:03.029Z,14.2
2018-04-13T20:50:10.885Z,14.2
2018-04-13T20:55:12.772Z,14.2
2018-04-13T21:00:05.725Z,14.2
2018-04-13T21:05:04.924Z,14.1
2018-04-13T21:10:15.330Z,14
2018-04-13T21:15:10.589Z,13.9
2018-04-13T21:20:05.481Z,13.9
2018-04-13T21:25:13.313Z,13.9
2018-04-13T21:30:10.164Z,13.9
2018-04-13T21:35:05.421Z,13.8
2018-04-13T21:40:03.158Z,13.8
2018-04-13T21:45:07.562Z,13.7
2018-04-13T21:50:02.896Z,13.7
2018-04-13T21:55:03.184Z,13.6
2018-04-13T22:00:02.449Z,13.5
2018-04-13T22:05:15.398Z,13.3
2018-04-13T22:10:03.104Z,13.3
2018-04-13T22:15:12.711Z,13.1
2018-04-13T22:20:05.578Z,13
2018-04-13T22:25:03.333Z,13
2018-04-13T22:30:07.778Z,12.8
2018-04-13T22:35:10.550Z,12.8
2018-04-13T22:40:10.911Z,12.7
2018-04-13T22:45:12.712Z,12.6
2018-04-13T22:50:05.545Z,12.5
2018-04-13T22:55:05.822Z,12.5
2018-04-13T23:00:03.092Z,12.5
2018-04-13T23:05:04.964Z,12.4
2018-04-13T23:10:02.698Z,12.5
2018-04-13T23:15:05.573Z,12.4
2018-04-13T23:20:10.538Z,12.4
2018-04-13T23:25:08.284Z,12.4
2018-04-13T23:30:10.182Z,12.4
2018-04-13T23:35:02.815Z,12.4
2018-04-13T23:40:22.793Z,12.3
2018-04-13T23:45:02.828Z,12.4
2018-04-13T23:50:03.176Z,12.3
2018-04-13T23:55:07.594Z,12.2
